Time;durP1;ratioP1;P1;durP2;ratioP2;P2;SDS_P1;SDS_P2;PMS_P1;PMS_P2;Temp;Humidity;BMP_temperature;BMP_pressure;BME280_temperature;BME280_humidity;BME280_pressure;Samples;Min_cycle;Max_cycle;Signal;HPM_P1;HPM_P2
2023/12/15 00:00:54;;;;;;;12.57;7.97;;;;;;;;;;5039158;28;20424;-90
2023/12/15 00:03:21;;;;;;;14.00;8.02;;;;;;;;;;5055675;28;20484;-91
2023/12/15 00:05:48;;;;;;;14.50;8.38;;;;;;;;;;5046001;28;20437;-90
2023/12/15 00:08:23;;;;;;;14.77;8.55;;;;;;;;;;5038155;28;20498;-89
2023/12/15 00:10:50;;;;;;;14.57;8.82;;;;;;;;;;5025962;28;20441;-90
2023/12/15 00:13:17;;;;;;;18.10;9.00;;;;;;;;;;5052594;28;20507;-90
2023/12/15 00:15:44;;;;;;;14.57;8.35;;;;;;;;;;5025040;28;20431;-91
2023/12/15 00:18:11;;;;;;;16.02;8.52;;;;;;;;;;5056963;28;20417;-90
2023/12/15 00:20:39;;;;;;;17.73;8.93;;;;;;;;;;5051730;28;20491;-91
2023/12/15 00:23:06;;;;;;;15.23;8.55;;;;;;;;;;5053854;28;20426;-91
2023/12/15 00:25:33;;;;;;;14.90;8.13;;;;;;;;;;5037795;28;20429;-90
2023/12/15 00:28:00;;;;;;;14.40;8.07;;;;;;;;;;5058704;28;20456;-90
2023/12/15 00:30:27;;;;;;;14.70;8.33;;;;;;;;;;5036730;28;20425;-90
2023/12/15 00:32:55;;;;;;;14.88;8.55;;;;;;;;;;5022860;28;20787;-89
2023/12/15 00:35:22;;;;;;;15.20;8.88;;;;;;;;;;5035725;28;20515;-90
2023/12/15 00:37:49;;;;;;;16.50;8.90;;;;;;;;;;5036944;28;20425;-90
2023/12/15 00:40:17;;;;;;;16.20;8.85;;;;;;;;;;5044966;28;20427;-91
2023/12/15 00:42:44;;;;;;;14.88;8.55;;;;;;;;;;5058429;28;20429;-90
2023/12/15 00:45:11;;;;;;;15.18;8.45;;;;;;;;;;5049139;28;20431;-90
2023/12/15 00:47:39;;;;;;;14.25;8.90;;;;;;;;;;5038381;28;21197;-90
2023/12/15 00:50:07;;;;;;;13.75;8.70;;;;;;;;;;5055047;28;20425;-90
2023/12/15 00:52:34;;;;;;;12.85;8.32;;;;;;;;;;5017282;28;20451;-90
2023/12/15 00:55:02;;;;;;;14.67;8.43;;;;;;;;;;5023578;28;21017;-90
2023/12/15 00:57:29;;;;;;;12.02;8.30;;;;;;;;;;5033050;28;20458;-90
2023/12/15 00:59:56;;;;;;;13.70;8.90;;;;;;;;;;5044988;28;20460;-90
2023/12/15 01:02:23;;;;;;;13.07;8.35;;;;;;;;;;5055531;28;20455;-90
2023/12/15 01:04:51;;;;;;;13.77;8.38;;;;;;;;;;5048754;28;20466;-90
2023/12/15 01:07:18;;;;;;;15.57;8.75;;;;;;;;;;5034582;28;20439;-90
2023/12/15 01:09:45;;;;;;;12.40;8.52;;;;;;;;;;5044465;28;21103;-90
2023/12/15 01:12:12;;;;;;;12.83;8.50;;;;;;;;;;5029826;28;21020;-91
2023/12/15 01:14:39;;;;;;;13.60;8.70;;;;;;;;;;5046056;28;20522;-89
2023/12/15 01:17:06;;;;;;;13.32;8.90;;;;;;;;;;5042387;28;20432;-91
2023/12/15 01:19:34;;;;;;;14.40;8.80;;;;;;;;;;5040559;28;20831;-91
2023/12/15 01:22:01;;;;;;;13.77;8.63;;;;;;;;;;5031894;28;20607;-91
2023/12/15 01:24:28;;;;;;;12.15;8.30;;;;;;;;;;5048936;28;20493;-90
2023/12/15 01:26:55;;;;;;;12.73;8.70;;;;;;;;;;5051591;28;20418;-90
2023/12/15 01:29:22;;;;;;;13.60;8.70;;;;;;;;;;5058965;28;20484;-90
2023/12/15 01:31:49;;;;;;;15.83;8.40;;;;;;;;;;5071858;28;20657;-90
2023/12/15 01:34:17;;;;;;;13.93;8.52;;;;;;;;;;5073376;28;20500;-89
2023/12/15 01:36:44;;;;;;;13.38;8.43;;;;;;;;;;5067559;28;20415;-90
2023/12/15 01:39:11;;;;;;;15.00;8.80;;;;;;;;;;5041811;28;20475;-91
2023/12/15 01:41:38;;;;;;;13.18;8.48;;;;;;;;;;5067406;28;20441;-90
2023/12/15 01:44:05;;;;;;;14.73;8.68;;;;;;;;;;5049197;28;20427;-92
2023/12/15 01:46:33;;;;;;;14.23;8.90;;;;;;;;;;5067407;28;20538;-91
2023/12/15 01:49:00;;;;;;;13.93;8.93;;;;;;;;;;5060230;28;20447;-91
2023/12/15 01:51:27;;;;;;;14.38;9.10;;;;;;;;;;5059717;28;20433;-91
2023/12/15 01:53:57;;;;;;;15.18;9.70;;;;;;;;;;5066509;28;20493;-91
2023/12/15 01:56:24;;;;;;;14.05;9.20;;;;;;;;;;5059547;28;20435;-91
2023/12/15 01:58:52;;;;;;;15.00;9.38;;;;;;;;;;5044777;28;20522;-91
2023/12/15 02:01:19;;;;;;;15.25;8.77;;;;;;;;;;5047140;28;20425;-91
2023/12/15 02:03:46;;;;;;;16.13;9.18;;;;;;;;;;5044808;28;20781;-90
2023/12/15 02:06:13;;;;;;;14.32;9.20;;;;;;;;;;5057477;28;20435;-91
2023/12/15 02:08:44;;;;;;;14.25;8.90;;;;;;;;;;5017935;28;20446;-91
2023/12/15 02:11:12;;;;;;;14.43;8.90;;;;;;;;;;5048945;28;20433;-91
2023/12/15 02:13:39;;;;;;;16.58;9.27;;;;;;;;;;5048633;28;20493;-91
2023/12/15 02:16:06;;;;;;;13.93;9.20;;;;;;;;;;5036192;28;20492;-91
2023/12/15 02:18:34;;;;;;;17.58;10.20;;;;;;;;;;5061343;28;20461;-90
2023/12/15 02:21:01;;;;;;;14.38;9.43;;;;;;;;;;5049680;28;20436;-91
2023/12/15 02:23:28;;;;;;;14.93;9.10;;;;;;;;;;5039324;28;20463;-91
2023/12/15 02:25:55;;;;;;;17.13;10.38;;;;;;;;;;5046689;28;20893;-91
2023/12/15 02:28:23;;;;;;;16.42;9.75;;;;;;;;;;5050011;28;20437;-91
2023/12/15 02:30:50;;;;;;;16.33;10.23;;;;;;;;;;5026707;28;20430;-90
2023/12/15 02:33:17;;;;;;;18.30;10.60;;;;;;;;;;5052066;28;21231;-90
2023/12/15 02:35:47;;;;;;;17.42;10.27;;;;;;;;;;5033189;28;20423;-90
2023/12/15 02:38:18;;;;;;;16.20;10.37;;;;;;;;;;5032228;28;20975;-91
2023/12/15 02:40:45;;;;;;;17.33;10.30;;;;;;;;;;5037866;28;20440;-91
2023/12/15 02:43:12;;;;;;;19.05;10.27;;;;;;;;;;5048939;28;20436;-91
2023/12/15 02:45:39;;;;;;;17.33;10.45;;;;;;;;;;5043770;28;20534;-90
2023/12/15 02:48:06;;;;;;;17.15;10.10;;;;;;;;;;5051652;28;20445;-90
2023/12/15 02:50:34;;;;;;;18.15;10.35;;;;;;;;;;5045087;28;20451;-90
2023/12/15 02:53:01;;;;;;;17.35;10.65;;;;;;;;;;5037678;28;20429;-90
2023/12/15 02:55:28;;;;;;;16.65;10.55;;;;;;;;;;5031222;28;20425;-89
2023/12/15 02:57:55;;;;;;;16.05;9.30;;;;;;;;;;5044842;28;20435;-90
2023/12/15 03:00:22;;;;;;;14.40;9.40;;;;;;;;;;5033971;28;20452;-90
2023/12/15 03:02:50;;;;;;;14.98;9.57;;;;;;;;;;5030701;28;20843;-90
2023/12/15 03:05:17;;;;;;;15.82;10.13;;;;;;;;;;5024325;28;20430;-90
2023/12/15 03:07:44;;;;;;;14.60;9.35;;;;;;;;;;5034952;28;20431;-90
2023/12/15 03:10:11;;;;;;;15.23;9.35;;;;;;;;;;5061582;28;20437;-89
2023/12/15 03:12:38;;;;;;;14.25;9.10;;;;;;;;;;5051506;28;20461;-90
2023/12/15 03:15:06;;;;;;;16.58;9.32;;;;;;;;;;5044110;28;20524;-90
2023/12/15 03:17:33;;;;;;;15.38;9.25;;;;;;;;;;5051197;28;20888;-82
2023/12/15 03:20:01;;;;;;;13.85;8.93;;;;;;;;;;5050940;28;20431;-83
2023/12/15 03:22:29;;;;;;;16.10;9.75;;;;;;;;;;5031714;28;20429;-83
2023/12/15 03:24:56;;;;;;;15.13;9.73;;;;;;;;;;5056625;28;20427;-83
2023/12/15 03:27:23;;;;;;;16.60;9.93;;;;;;;;;;5058783;28;20510;-83
2023/12/15 03:29:50;;;;;;;18.08;10.32;;;;;;;;;;5057517;28;20911;-83
2023/12/15 03:32:17;;;;;;;16.63;10.13;;;;;;;;;;5041244;28;21021;-83
2023/12/15 03:34:45;;;;;;;16.52;10.15;;;;;;;;;;5046119;28;20436;-83
2023/12/15 03:37:12;;;;;;;18.48;10.60;;;;;;;;;;5052949;28;20479;-83
2023/12/15 03:39:39;;;;;;;19.77;10.65;;;;;;;;;;5049386;28;20429;-83
2023/12/15 03:42:07;;;;;;;18.20;10.93;;;;;;;;;;5042688;28;20437;-83
2023/12/15 03:44:39;;;;;;;17.88;10.77;;;;;;;;;;5038356;28;20435;-83
2023/12/15 03:47:07;;;;;;;18.33;11.43;;;;;;;;;;5032720;28;20503;-83
2023/12/15 03:49:34;;;;;;;20.48;11.30;;;;;;;;;;5043606;28;20850;-83
2023/12/15 03:52:02;;;;;;;20.77;11.90;;;;;;;;;;5023891;28;20523;-83
2023/12/15 03:54:29;;;;;;;20.80;11.15;;;;;;;;;;5065734;28;20435;-83
2023/12/15 03:56:56;;;;;;;16.73;10.35;;;;;;;;;;5045625;28;20993;-83
2023/12/15 03:59:27;;;;;;;20.17;11.63;;;;;;;;;;5029863;28;20508;-82
2023/12/15 04:01:55;;;;;;;20.17;11.02;;;;;;;;;;5038638;28;20487;-83
2023/12/15 04:04:22;;;;;;;17.53;11.03;;;;;;;;;;5022666;28;20444;-83
2023/12/15 04:06:49;;;;;;;18.23;11.10;;;;;;;;;;5033514;28;20470;-83
2023/12/15 04:09:16;;;;;;;19.83;11.23;;;;;;;;;;5040978;28;20870;-83
2023/12/15 04:11:44;;;;;;;20.40;11.10;;;;;;;;;;5011952;28;20992;-83
2023/12/15 04:14:11;;;;;;;18.98;11.00;;;;;;;;;;5024743;28;20483;-83
2023/12/15 04:16:40;;;;;;;18.65;11.05;;;;;;;;;;5036694;28;20430;-83
2023/12/15 04:19:08;;;;;;;21.02;10.88;;;;;;;;;;5029401;28;20996;-83
2023/12/15 04:21:35;;;;;;;17.80;10.90;;;;;;;;;;5035930;28;20437;-83
2023/12/15 04:24:02;;;;;;;18.45;11.35;;;;;;;;;;5034859;28;20429;-83
2023/12/15 04:26:29;;;;;;;19.00;10.97;;;;;;;;;;5027515;28;20438;-83
2023/12/15 04:28:57;;;;;;;19.60;11.30;;;;;;;;;;5033111;28;20514;-83
2023/12/15 04:31:24;;;;;;;18.45;11.27;;;;;;;;;;5024312;28;20445;-82
2023/12/15 04:33:52;;;;;;;21.20;11.20;;;;;;;;;;5046321;28;20443;-83
2023/12/15 04:36:19;;;;;;;20.48;10.80;;;;;;;;;;5032456;28;20522;-82
2023/12/15 04:38:46;;;;;;;19.48;10.75;;;;;;;;;;5028481;28;20423;-83
2023/12/15 04:41:17;;;;;;;20.77;12.00;;;;;;;;;;5028149;28;20477;-83
2023/12/15 04:43:45;;;;;;;17.42;10.55;;;;;;;;;;5038361;28;20522;-83
2023/12/15 04:46:12;;;;;;;19.40;11.32;;;;;;;;;;5020967;28;20425;-83
2023/12/15 04:48:39;;;;;;;19.15;11.07;;;;;;;;;;5048910;28;20456;-83
2023/12/15 04:51:07;;;;;;;19.95;10.65;;;;;;;;;;5024901;28;20428;-83
2023/12/15 04:53:34;;;;;;;19.87;11.00;;;;;;;;;;5041253;28;22436;-83
2023/12/15 04:56:01;;;;;;;20.42;11.73;;;;;;;;;;5044976;28;20469;-84
2023/12/15 04:58:28;;;;;;;19.63;11.73;;;;;;;;;;5026578;28;20793;-83
2023/12/15 05:00:55;;;;;;;21.20;11.73;;;;;;;;;;5035982;28;20509;-83
2023/12/15 05:03:23;;;;;;;18.52;10.93;;;;;;;;;;5044445;28;20979;-83
2023/12/15 05:05:50;;;;;;;18.80;11.60;;;;;;;;;;5052897;28;20431;-82
2023/12/15 05:08:17;;;;;;;20.45;11.65;;;;;;;;;;5031691;28;20574;-82
2023/12/15 05:10:45;;;;;;;20.08;11.65;;;;;;;;;;5034999;28;20788;-83
2023/12/15 05:13:15;;;;;;;19.25;11.23;;;;;;;;;;5039154;28;20441;-83
2023/12/15 05:15:42;;;;;;;19.98;11.40;;;;;;;;;;5050437;28;20515;-83
2023/12/15 05:18:10;;;;;;;18.40;10.32;;;;;;;;;;5031776;28;20439;-83
2023/12/15 05:20:38;;;;;;;17.60;10.70;;;;;;;;;;5033565;28;20427;-83
2023/12/15 05:23:05;;;;;;;20.45;10.80;;;;;;;;;;5048914;28;20435;-83
2023/12/15 05:25:32;;;;;;;17.92;10.82;;;;;;;;;;5027079;28;20770;-83
2023/12/15 05:27:59;;;;;;;19.40;9.93;;;;;;;;;;5035020;28;20554;-83
2023/12/15 05:30:26;;;;;;;19.85;11.27;;;;;;;;;;5029437;28;20439;-84
2023/12/15 05:32:54;;;;;;;18.25;10.65;;;;;;;;;;5054416;28;20440;-83
2023/12/15 05:35:21;;;;;;;18.58;10.45;;;;;;;;;;5026086;28;20438;-83
2023/12/15 05:37:50;;;;;;;21.27;10.68;;;;;;;;;;5049451;28;20437;-83
2023/12/15 05:40:17;;;;;;;17.80;10.65;;;;;;;;;;5050685;28;20838;-83
2023/12/15 05:42:44;;;;;;;17.45;10.15;;;;;;;;;;5031361;28;20435;-83
2023/12/15 05:45:12;;;;;;;23.40;11.47;;;;;;;;;;5046994;28;20466;-83
2023/12/15 05:47:40;;;;;;;19.67;10.35;;;;;;;;;;5047055;28;20429;-83
2023/12/15 05:50:08;;;;;;;20.50;11.03;;;;;;;;;;5034335;28;20432;-83
2023/12/15 05:52:41;;;;;;;18.50;10.20;;;;;;;;;;5048665;28;20828;-83
2023/12/15 05:55:09;;;;;;;17.65;9.65;;;;;;;;;;5027176;28;20465;-83
2023/12/15 05:57:36;;;;;;;17.90;10.75;;;;;;;;;;5047736;28;20776;-83
2023/12/15 06:00:03;;;;;;;20.13;10.20;;;;;;;;;;5029803;28;20477;-83
2023/12/15 06:02:31;;;;;;;17.65;10.18;;;;;;;;;;5027085;28;20431;-83
2023/12/15 06:04:58;;;;;;;18.77;10.20;;;;;;;;;;5037050;28;20433;-83
2023/12/15 06:07:26;;;;;;;17.92;10.25;;;;;;;;;;5033588;28;20469;-84
2023/12/15 06:09:53;;;;;;;16.70;9.53;;;;;;;;;;5036275;28;20437;-84
2023/12/15 06:12:21;;;;;;;18.70;10.18;;;;;;;;;;5028460;28;20917;-83
2023/12/15 06:14:51;;;;;;;17.67;9.48;;;;;;;;;;5033397;28;20462;-83
2023/12/15 06:17:20;;;;;;;18.00;9.95;;;;;;;;;;5022693;28;20948;-84
2023/12/15 06:20:11;;;;;;;16.38;9.27;;;;;;;;;;5025535;28;21073;-83
2023/12/15 06:22:38;;;;;;;19.05;10.00;;;;;;;;;;5049679;28;20433;-84
2023/12/15 06:25:06;;;;;;;14.20;8.73;;;;;;;;;;5022553;28;20418;-83
2023/12/15 06:27:33;;;;;;;16.60;10.02;;;;;;;;;;5058800;28;20427;-84
2023/12/15 06:30:00;;;;;;;17.95;9.23;;;;;;;;;;5033800;28;20461;-84
2023/12/15 06:32:27;;;;;;;17.80;8.80;;;;;;;;;;5042985;28;20434;-83
2023/12/15 06:34:55;;;;;;;16.73;9.07;;;;;;;;;;5032034;28;21149;-84
2023/12/15 06:37:22;;;;;;;13.95;9.02;;;;;;;;;;5034726;28;20815;-84
2023/12/15 06:39:50;;;;;;;16.83;9.20;;;;;;;;;;5047185;28;20778;-84
2023/12/15 06:42:17;;;;;;;16.77;9.07;;;;;;;;;;5048847;28;20483;-83
2023/12/15 06:44:44;;;;;;;16.70;8.88;;;;;;;;;;5050525;28;20424;-84
2023/12/15 06:47:11;;;;;;;14.90;9.10;;;;;;;;;;5054494;28;20570;-84
2023/12/15 06:49:39;;;;;;;17.45;8.90;;;;;;;;;;5035721;28;20437;-84
2023/12/15 06:52:07;;;;;;;20.15;9.68;;;;;;;;;;5051133;28;20463;-84
2023/12/15 06:54:37;;;;;;;19.63;9.20;;;;;;;;;;5032773;28;20431;-84
2023/12/15 06:57:06;;;;;;;21.30;10.60;;;;;;;;;;5057902;28;20437;-84
2023/12/15 06:59:33;;;;;;;19.98;10.20;;;;;;;;;;5024393;28;20438;-85
2023/12/15 07:02:00;;;;;;;20.70;10.45;;;;;;;;;;5041823;28;20429;-87
2023/12/15 07:04:27;;;;;;;21.08;9.88;;;;;;;;;;5035470;28;20438;-84
2023/12/15 07:06:55;;;;;;;21.75;11.43;;;;;;;;;;5029782;28;20427;-87
2023/12/15 07:09:22;;;;;;;22.20;10.98;;;;;;;;;;5030351;28;20439;-83
2023/12/15 07:11:49;;;;;;;26.90;12.32;;;;;;;;;;5026133;28;20437;-83
2023/12/15 07:14:16;;;;;;;23.33;11.55;;;;;;;;;;5022872;28;20437;-83
2023/12/15 07:16:44;;;;;;;23.20;11.10;;;;;;;;;;5023974;28;20437;-83
2023/12/15 07:19:11;;;;;;;24.23;11.07;;;;;;;;;;5047488;28;20436;-83
2023/12/15 07:21:38;;;;;;;23.17;11.35;;;;;;;;;;5044861;28;21020;-83
2023/12/15 07:24:06;;;;;;;21.77;10.77;;;;;;;;;;5032304;28;20433;-83
2023/12/15 07:26:33;;;;;;;22.90;10.77;;;;;;;;;;5039971;28;20423;-83
2023/12/15 07:29:01;;;;;;;20.85;10.90;;;;;;;;;;5068736;28;20449;-84
2023/12/15 07:31:37;;;;;;;21.92;10.57;;;;;;;;;;5025032;28;20492;-83
2023/12/15 07:34:04;;;;;;;22.92;10.52;;;;;;;;;;5041599;28;20545;-82
2023/12/15 07:36:31;;;;;;;21.75;10.77;;;;;;;;;;5041056;28;20433;-82
2023/12/15 07:38:59;;;;;;;23.77;11.45;;;;;;;;;;5038891;28;20434;-82
2023/12/15 07:41:33;;;;;;;24.55;11.43;;;;;;;;;;5036234;27;20746;-68
2023/12/15 07:44:00;;;;;;;23.90;10.40;;;;;;;;;;5013233;28;20432;-68
2023/12/15 07:46:28;;;;;;;24.13;10.53;;;;;;;;;;5017135;28;20428;-68
2023/12/15 07:50:54;;;;;;;20.00;9.68;;;;;;;;;;5075956;27;20397;-67
2023/12/15 07:53:21;;;;;;;20.70;10.57;;;;;;;;;;5062426;28;20790;-67
2023/12/15 07:55:49;;;;;;;16.83;9.52;;;;;;;;;;5056313;28;20428;-67
2023/12/15 07:58:16;;;;;;;19.00;9.73;;;;;;;;;;5057415;28;20459;-67
2023/12/15 08:00:43;;;;;;;17.73;9.75;;;;;;;;;;5053354;28;20513;-67
2023/12/15 08:03:10;;;;;;;16.25;9.23;;;;;;;;;;5064506;28;20909;-67
2023/12/15 08:05:37;;;;;;;16.73;9.25;;;;;;;;;;5056699;28;20434;-67
2023/12/15 08:08:05;;;;;;;13.37;8.87;;;;;;;;;;5052379;28;20502;-67
2023/12/15 08:10:34;;;;;;;14.90;8.65;;;;;;;;;;5062862;28;20435;-67
2023/12/15 08:13:01;;;;;;;17.13;8.63;;;;;;;;;;5061805;28;20482;-68
2023/12/15 08:15:29;;;;;;;13.38;8.00;;;;;;;;;;5053544;28;20930;-67
2023/12/15 08:17:56;;;;;;;15.65;8.93;;;;;;;;;;5060170;28;20436;-67
2023/12/15 08:20:24;;;;;;;12.48;8.60;;;;;;;;;;5072773;28;20457;-68
2023/12/15 08:22:51;;;;;;;11.77;8.30;;;;;;;;;;5060886;28;20428;-67
2023/12/15 08:25:18;;;;;;;12.20;8.35;;;;;;;;;;5064676;28;20432;-67
2023/12/15 08:27:45;;;;;;;12.63;8.60;;;;;;;;;;5054420;28;20432;-68
2023/12/15 08:30:13;;;;;;;10.27;7.82;;;;;;;;;;5067717;28;20519;-68
2023/12/15 08:32:40;;;;;;;15.18;8.07;;;;;;;;;;5055299;28;20490;-68
2023/12/15 08:35:07;;;;;;;10.95;7.60;;;;;;;;;;5060268;28;20441;-68
2023/12/15 08:37:35;;;;;;;12.50;8.18;;;;;;;;;;5067913;28;20831;-67
2023/12/15 08:40:02;;;;;;;10.15;8.10;;;;;;;;;;5049528;28;20859;-67
2023/12/15 08:42:29;;;;;;;11.10;7.88;;;;;;;;;;5062309;28;20511;-68
2023/12/15 08:44:57;;;;;;;12.00;7.90;;;;;;;;;;5073961;28;20906;-68
2023/12/15 08:47:24;;;;;;;13.33;8.20;;;;;;;;;;5064112;28;20436;-68
2023/12/15 08:49:51;;;;;;;12.43;7.75;;;;;;;;;;5066686;28;20448;-67
2023/12/15 08:52:18;;;;;;;12.70;8.73;;;;;;;;;;5077446;28;20516;-68
2023/12/15 08:54:46;;;;;;;10.98;8.15;;;;;;;;;;5088174;28;20423;-68
2023/12/15 08:57:13;;;;;;;13.10;8.13;;;;;;;;;;5082790;28;20854;-68
2023/12/15 08:59:40;;;;;;;11.27;7.95;;;;;;;;;;5074812;28;20910;-68
2023/12/15 09:02:08;;;;;;;12.90;8.60;;;;;;;;;;5081992;28;20440;-68
2023/12/15 09:04:36;;;;;;;13.67;8.00;;;;;;;;;;5075346;28;20431;-68
2023/12/15 09:07:14;;;;;;;12.88;8.27;;;;;;;;;;5066445;28;20522;-67
2023/12/15 09:09:41;;;;;;;11.50;7.90;;;;;;;;;;5064450;28;20431;-68
2023/12/15 09:12:09;;;;;;;10.37;7.07;;;;;;;;;;5066747;28;20999;-68
2023/12/15 09:14:36;;;;;;;10.07;6.85;;;;;;;;;;5062810;28;20427;-68
2023/12/15 09:17:03;;;;;;;9.93;7.05;;;;;;;;;;5054087;28;20433;-67
2023/12/15 09:19:30;;;;;;;9.55;7.00;;;;;;;;;;5066252;28;20431;-67
2023/12/15 09:21:58;;;;;;;9.02;7.25;;;;;;;;;;5063937;28;20431;-68
2023/12/15 09:24:25;;;;;;;9.60;7.00;;;;;;;;;;5077450;28;20457;-68
2023/12/15 09:26:52;;;;;;;10.67;7.63;;;;;;;;;;5056615;28;20929;-67
2023/12/15 09:29:19;;;;;;;10.05;7.50;;;;;;;;;;5052209;28;20882;-67
2023/12/15 09:31:47;;;;;;;12.27;8.15;;;;;;;;;;5059666;28;20432;-67
2023/12/15 09:34:14;;;;;;;11.38;8.07;;;;;;;;;;5064538;28;20942;-67
2023/12/15 09:36:42;;;;;;;10.80;8.18;;;;;;;;;;5065828;28;20424;-67
2023/12/15 09:39:10;;;;;;;11.40;8.53;;;;;;;;;;5058622;28;20459;-67
2023/12/15 09:41:37;;;;;;;13.25;9.35;;;;;;;;;;5058822;28;20540;-68
2023/12/15 09:44:04;;;;;;;11.55;8.45;;;;;;;;;;5065490;28;20486;-67
2023/12/15 09:46:31;;;;;;;13.43;9.20;;;;;;;;;;5055046;28;20433;-67
2023/12/15 09:48:59;;;;;;;15.65;9.40;;;;;;;;;;5071290;28;20512;-67
2023/12/15 09:51:26;;;;;;;13.13;9.27;;;;;;;;;;5065152;28;20428;-67
2023/12/15 09:53:53;;;;;;;13.35;9.10;;;;;;;;;;5066969;28;20489;-67
2023/12/15 09:56:21;;;;;;;14.02;9.60;;;;;;;;;;5065696;28;20424;-67
2023/12/15 09:58:48;;;;;;;13.50;9.20;;;;;;;;;;5057276;28;20511;-67
2023/12/15 10:01:15;;;;;;;16.23;9.45;;;;;;;;;;5061759;28;20895;-67
2023/12/15 10:03:43;;;;;;;12.75;9.27;;;;;;;;;;5059701;28;20436;-67
2023/12/15 10:06:10;;;;;;;13.50;9.13;;;;;;;;;;5071374;28;20469;-67
2023/12/15 10:08:44;;;;;;;14.18;9.23;;;;;;;;;;5055631;28;20438;-67
2023/12/15 10:11:29;;;;;;;12.75;9.27;;;;;;;;;;5056080;28;20431;-67
2023/12/15 10:13:57;;;;;;;14.55;9.13;;;;;;;;;;5059723;28;20431;-67
2023/12/15 10:16:27;;;;;;;15.25;9.90;;;;;;;;;;5061036;28;20519;-67
2023/12/15 10:18:54;;;;;;;15.60;10.07;;;;;;;;;;5057685;28;20431;-67
2023/12/15 10:21:22;;;;;;;15.60;10.18;;;;;;;;;;5067071;28;20511;-67
2023/12/15 10:23:52;;;;;;;15.32;10.48;;;;;;;;;;5059860;28;20864;-67
2023/12/15 10:26:19;;;;;;;16.02;10.88;;;;;;;;;;5055066;28;20423;-67
2023/12/15 10:28:46;;;;;;;17.00;11.03;;;;;;;;;;5050074;28;20431;-67
2023/12/15 10:31:14;;;;;;;16.05;11.10;;;;;;;;;;5053325;28;20441;-67
2023/12/15 10:33:41;;;;;;;17.65;10.75;;;;;;;;;;5053624;28;20978;-67
2023/12/15 10:36:11;;;;;;;17.95;10.90;;;;;;;;;;5060683;28;20435;-67
2023/12/15 10:38:38;;;;;;;16.38;10.52;;;;;;;;;;5067689;28;20509;-67
2023/12/15 10:41:06;;;;;;;15.45;10.45;;;;;;;;;;5062940;28;20427;-67
2023/12/15 10:43:34;;;;;;;16.92;10.73;;;;;;;;;;5054793;28;20431;-67
2023/12/15 10:46:03;;;;;;;14.47;10.60;;;;;;;;;;5067626;28;21034;-67
2023/12/15 10:48:32;;;;;;;16.33;11.25;;;;;;;;;;5068003;28;20484;-67
2023/12/15 10:50:59;;;;;;;17.27;10.80;;;;;;;;;;5066214;28;20462;-67
2023/12/15 10:53:27;;;;;;;16.17;11.20;;;;;;;;;;5054952;28;20976;-67
2023/12/15 10:55:54;;;;;;;16.45;11.30;;;;;;;;;;5060952;28;20543;-69
2023/12/15 10:58:21;;;;;;;16.92;11.10;;;;;;;;;;5060386;28;20810;-67
2023/12/15 11:00:48;;;;;;;18.77;11.18;;;;;;;;;;5063458;28;20515;-67
2023/12/15 11:03:16;;;;;;;17.83;10.83;;;;;;;;;;5060355;28;20979;-68
2023/12/15 11:05:43;;;;;;;19.60;11.60;;;;;;;;;;5056778;28;20439;-67
2023/12/15 11:08:12;;;;;;;17.42;11.80;;;;;;;;;;5063208;28;20431;-67
2023/12/15 11:10:39;;;;;;;18.60;11.70;;;;;;;;;;5052227;28;20469;-67
2023/12/15 11:13:26;;;;;;;15.27;11.75;;;;;;;;;;5055679;28;20431;-67
2023/12/15 11:15:54;;;;;;;20.02;11.73;;;;;;;;;;5066044;28;20840;-68
2023/12/15 11:18:21;;;;;;;19.30;11.25;;;;;;;;;;5062584;28;20457;-68
2023/12/15 11:20:50;;;;;;;17.17;11.17;;;;;;;;;;5058153;28;20440;-69
2023/12/15 11:23:18;;;;;;;18.83;11.57;;;;;;;;;;5054187;28;20462;-68
2023/12/15 11:25:48;;;;;;;17.50;11.52;;;;;;;;;;5047540;28;20435;-69
2023/12/15 11:28:17;;;;;;;17.92;11.57;;;;;;;;;;5058365;28;20502;-69
2023/12/15 11:30:48;;;;;;;17.95;11.70;;;;;;;;;;5049819;28;20433;-68
2023/12/15 11:33:22;;;;;;;14.57;10.95;;;;;;;;;;5066816;28;20446;-69
2023/12/15 11:35:53;;;;;;;17.52;11.50;;;;;;;;;;5065036;28;20466;-69
2023/12/15 11:38:21;;;;;;;16.45;11.10;;;;;;;;;;5067146;28;20462;-68
2023/12/15 11:40:48;;;;;;;16.70;10.70;;;;;;;;;;5050395;28;20475;-69
2023/12/15 11:43:15;;;;;;;16.67;10.45;;;;;;;;;;5039007;28;20517;-68
2023/12/15 11:45:43;;;;;;;14.85;10.93;;;;;;;;;;5058095;28;20467;-69
2023/12/15 11:48:10;;;;;;;15.75;10.52;;;;;;;;;;5051493;28;20518;-69
2023/12/15 11:50:44;;;;;;;15.57;10.93;;;;;;;;;;5050314;28;20554;-69
2023/12/15 11:53:14;;;;;;;17.55;11.50;;;;;;;;;;5066824;28;20459;-68
2023/12/15 11:55:42;;;;;;;15.63;10.63;;;;;;;;;;5062860;28;20774;-69
2023/12/15 11:58:10;;;;;;;17.67;10.52;;;;;;;;;;5060928;28;20543;-68
2023/12/15 12:00:38;;;;;;;15.82;10.70;;;;;;;;;;5053872;28;20485;-68
2023/12/15 12:03:05;;;;;;;16.42;10.73;;;;;;;;;;5051931;28;20460;-68
2023/12/15 12:05:32;;;;;;;14.55;9.80;;;;;;;;;;5069602;28;20432;-69
2023/12/15 12:08:00;;;;;;;16.65;10.35;;;;;;;;;;5067418;28;20427;-69
2023/12/15 12:10:35;;;;;;;14.45;9.68;;;;;;;;;;5053409;28;20518;-68
2023/12/15 12:13:02;;;;;;;19.70;10.95;;;;;;;;;;5061755;28;20431;-68
2023/12/15 12:15:29;;;;;;;16.90;10.73;;;;;;;;;;5058476;28;20792;-68
2023/12/15 12:17:56;;;;;;;18.35;10.77;;;;;;;;;;5068734;28;21190;-68
2023/12/15 12:20:30;;;;;;;16.27;10.85;;;;;;;;;;5058474;28;20482;-68
2023/12/15 12:22:58;;;;;;;15.60;10.40;;;;;;;;;;5059753;28;20522;-69
2023/12/15 12:25:25;;;;;;;15.07;10.07;;;;;;;;;;5056312;28;20450;-68
2023/12/15 12:27:53;;;;;;;18.33;10.57;;;;;;;;;;5065072;28;20481;-68
2023/12/15 12:30:20;;;;;;;14.13;9.75;;;;;;;;;;5056251;28;20449;-68
2023/12/15 12:32:48;;;;;;;15.27;9.88;;;;;;;;;;5057270;28;21178;-68
2023/12/15 12:35:15;;;;;;;13.68;9.57;;;;;;;;;;5068183;28;20527;-68
2023/12/15 12:37:43;;;;;;;13.13;9.45;;;;;;;;;;5066986;28;20538;-69
2023/12/15 12:40:11;;;;;;;13.65;9.18;;;;;;;;;;5060325;28;20836;-68
2023/12/15 12:42:38;;;;;;;15.05;9.88;;;;;;;;;;5051266;28;20459;-68
2023/12/15 12:45:07;;;;;;;15.48;9.10;;;;;;;;;;5064069;28;20443;-68
2023/12/15 12:47:37;;;;;;;11.75;8.43;;;;;;;;;;5074771;28;20522;-68
2023/12/15 12:50:05;;;;;;;12.23;8.00;;;;;;;;;;5065728;28;20821;-68
2023/12/15 12:52:33;;;;;;;10.77;8.32;;;;;;;;;;5074689;28;20921;-68
2023/12/15 12:55:05;;;;;;;10.15;7.80;;;;;;;;;;5061115;28;20458;-68
2023/12/15 12:57:32;;;;;;;10.70;7.93;;;;;;;;;;5074736;28;20477;-68
2023/12/15 13:00:00;;;;;;;9.82;6.95;;;;;;;;;;5071868;28;20502;-69
2023/12/15 13:02:27;;;;;;;11.30;7.60;;;;;;;;;;5055801;28;20463;-68
2023/12/15 13:04:54;;;;;;;9.18;6.72;;;;;;;;;;5054988;28;20495;-68
2023/12/15 13:07:21;;;;;;;9.00;6.28;;;;;;;;;;5061406;28;20424;-68
2023/12/15 13:09:48;;;;;;;8.57;6.28;;;;;;;;;;5070489;28;20431;-68
2023/12/15 13:12:17;;;;;;;7.70;5.93;;;;;;;;;;5063579;28;20431;-68
2023/12/15 13:14:48;;;;;;;6.88;5.50;;;;;;;;;;5051970;28;20457;-67
2023/12/15 13:17:16;;;;;;;5.35;4.85;;;;;;;;;;5058212;28;20440;-67
2023/12/15 13:19:43;;;;;;;6.57;4.53;;;;;;;;;;5079364;28;20435;-68
2023/12/15 13:22:10;;;;;;;4.90;4.40;;;;;;;;;;5071496;28;20862;-67
2023/12/15 13:24:38;;;;;;;3.90;3.60;;;;;;;;;;5060280;28;20481;-67
2023/12/15 13:27:21;;;;;;;4.90;3.65;;;;;;;;;;5056077;28;20925;-67
2023/12/15 13:29:50;;;;;;;3.85;3.20;;;;;;;;;;5071719;28;20481;-67
2023/12/15 13:32:17;;;;;;;4.78;3.45;;;;;;;;;;5072521;28;20435;-67
2023/12/15 13:34:45;;;;;;;3.65;3.35;;;;;;;;;;5055823;28;20544;-67
2023/12/15 13:37:13;;;;;;;3.60;3.30;;;;;;;;;;5066043;28;20512;-67
2023/12/15 13:39:41;;;;;;;4.00;3.55;;;;;;;;;;5079022;28;20469;-67
2023/12/15 13:42:09;;;;;;;4.28;3.80;;;;;;;;;;5079647;28;20503;-67
2023/12/15 13:44:36;;;;;;;3.80;3.40;;;;;;;;;;5066267;28;20433;-67
2023/12/15 13:47:03;;;;;;;3.67;3.40;;;;;;;;;;5070907;28;20512;-67
2023/12/15 13:49:31;;;;;;;4.53;3.72;;;;;;;;;;5079774;28;20528;-67
2023/12/15 13:51:59;;;;;;;4.05;3.67;;;;;;;;;;5070307;28;20489;-67
2023/12/15 13:54:27;;;;;;;4.57;4.00;;;;;;;;;;5067997;28;20432;-68
2023/12/15 13:56:56;;;;;;;4.00;3.60;;;;;;;;;;5069485;28;20428;-68
2023/12/15 13:59:24;;;;;;;4.10;3.70;;;;;;;;;;5081631;28;20426;-68
2023/12/15 14:01:51;;;;;;;4.45;4.05;;;;;;;;;;5065324;28;20440;-68
2023/12/15 14:04:19;;;;;;;5.28;4.45;;;;;;;;;;5072496;28;20436;-68
2023/12/15 14:06:49;;;;;;;5.10;4.20;;;;;;;;;;5081661;28;20516;-68
2023/12/15 14:09:17;;;;;;;4.20;3.80;;;;;;;;;;5070989;28;21109;-68
2023/12/15 14:11:44;;;;;;;4.32;3.92;;;;;;;;;;5071462;28;20929;-67
2023/12/15 14:14:11;;;;;;;4.20;3.80;;;;;;;;;;5069848;28;20459;-67
2023/12/15 14:16:39;;;;;;;4.45;4.05;;;;;;;;;;5070510;28;20426;-69
2023/12/15 14:19:13;;;;;;;4.00;3.60;;;;;;;;;;5061856;28;20426;-69
2023/12/15 14:21:45;;;;;;;4.15;3.72;;;;;;;;;;5075493;28;20435;-69
2023/12/15 14:24:16;;;;;;;4.63;3.97;;;;;;;;;;5070644;28;20429;-67
2023/12/15 14:26:44;;;;;;;4.00;3.60;;;;;;;;;;5061143;28;20440;-67
2023/12/15 14:29:11;;;;;;;4.95;3.83;;;;;;;;;;5064649;28;20445;-67
2023/12/15 14:31:39;;;;;;;5.60;4.05;;;;;;;;;;5065559;28;20494;-67